»·PEaware :: N348SM O60-KSFO

N348SM :: O60-KSFO

FLIGHT INFORMATION

Flight Status: Arrived
Operator: Privately registered:
United States
More flights under this callsign
Pilot: Frank H. (26614)
Aircraft: PILATUS PC-12 EAGLE
(PC12)
More flights by this aircraft type
Origin: O60 Cloverdale Mun
United States
Destination: KSFO San Francisco Intl
United States
More flights between these airports :: More routes between these airports
Route: +ENI PYE3
File this flight plan on PilotEdge
Remarks: Clearance in air
Altitude:
(Current/Filed)
12,000ft
Speed:
(Current/Filed)
200kts
Departed: 08-Dec-19 10:02 PM
Arrived: 08-Dec-19 10:43 PM
Distance/Time
Traveled:
75nm/0:41
Distance/Time
To Go:
Arrived

Flight Plot

Page will automatically refresh every two minutes.

Flight plan parsing failed; only flown route is shown


Map Options




Map Legend


Flown Route
Filed Route
Departure Airport
Arrival Airport
Navaid (VOR, NDB)
Fix

Horizontal Profiles

Position Reports

Time Latitude Longitude Heading Altitude Ground
Speed
08-Dec-19 21:54 38.775179 -122.993181 245 272ft 0kts
08-Dec-19 21:55 38.775179 -122.993181 245 272ft 0kts
08-Dec-19 21:56 38.775179 -122.993181 244 273ft 0kts
08-Dec-19 21:56 38.775179 -122.993181 244 273ft 0kts
08-Dec-19 21:58 38.775145 -122.993234 213 273ft 5kts
08-Dec-19 21:58 38.773370 -122.990735 150 268ft 14kts
08-Dec-19 21:59 38.772686 -122.990320 164 266ft 0kts
08-Dec-19 22:01 38.772789 -122.990314 333 266ft 0kts
08-Dec-19 22:01 38.782819 -122.996637 335 570ft 107kts
08-Dec-19 22:02 38.795043 -123.024134 237 2597ft 119kts
08-Dec-19 22:03 38.765901 -123.041773 141 4793ft 152kts
08-Dec-19 22:04 38.773382 -123.010647 357 6456ft 158kts
08-Dec-19 22:05 38.811054 -123.045357 322 8507ft 176kts
08-Dec-19 22:06 38.848885 -123.087413 322 10563ft 181kts
08-Dec-19 22:07 38.887437 -123.131528 322 12000ft 211kts
08-Dec-19 22:08 38.937479 -123.187057 322 11999ft 249kts
08-Dec-19 22:09 38.991033 -123.244905 322 11998ft 250kts
08-Dec-19 22:10 38.991021 -123.318542 202 12011ft 275kts
08-Dec-19 22:11 38.917929 -123.298127 156 11998ft 276kts
08-Dec-19 22:12 38.845780 -123.260449 155 11998ft 277kts
08-Dec-19 22:13 38.773986 -123.223233 155 12109ft 273kts
08-Dec-19 22:14 38.702270 -123.186139 155 12000ft 280kts
08-Dec-19 22:15 38.629908 -123.148842 155 11999ft 277kts
08-Dec-19 22:16 38.557741 -123.112000 157 11999ft 277kts
08-Dec-19 22:17 38.484765 -123.077433 157 12000ft 276kts
08-Dec-19 22:18 38.412304 -123.043338 157 12000ft 274kts
08-Dec-19 22:19 38.340350 -123.009543 157 11982ft 273kts
08-Dec-19 22:20 38.269941 -122.979177 150 11985ft 274kts
08-Dec-19 22:21 38.197836 -122.942828 157 11984ft 277kts
08-Dec-19 22:22 38.125186 -122.908924 157 11987ft 277kts
08-Dec-19 22:23 38.052480 -122.875070 157 11991ft 277kts
08-Dec-19 22:24 37.980117 -122.841453 157 11992ft 274kts
08-Dec-19 22:25 37.908172 -122.808140 157 11992ft 274kts
08-Dec-19 22:26 37.836581 -122.775013 157 11989ft 274kts
08-Dec-19 22:27 37.764514 -122.741735 157 11989ft 274kts
08-Dec-19 22:28 37.692304 -122.708463 157 11989ft 274kts
08-Dec-19 22:29 37.618895 -122.674707 158 11132ft 283kts
08-Dec-19 22:30 37.547879 -122.642127 158 9807ft 266kts
08-Dec-19 22:31 37.479371 -122.610738 158 8498ft 259kts
08-Dec-19 22:32 37.413968 -122.574975 125 7194ft 251kts
08-Dec-19 22:33 37.399743 -122.495261 89 6596ft 230kts
08-Dec-19 22:34 37.397127 -122.415515 89 5997ft 230kts
08-Dec-19 22:35 37.394794 -122.346736 90 5487ft 230kts
08-Dec-19 22:36 37.414910 -122.287401 15 4677ft 225kts
08-Dec-19 22:37 37.482379 -122.266571 13 3592ft 209kts
08-Dec-19 22:38 37.533182 -122.250930 8 2653ft 166kts
08-Dec-19 22:39 37.575204 -122.266965 309 1237ft 167kts
08-Dec-19 22:40 37.595154 -122.316008 301 778ft 169kts
08-Dec-19 22:41 37.611476 -122.352414 297 155ft 105kts
08-Dec-19 22:42 37.619968 -122.372478 296 10ft 35kts
08-Dec-19 22:43 37.624581 -122.381459 35 21ft 17kts
08-Dec-19 22:44 37.627777 -122.383737 280 11ft 8kts
08-Dec-19 22:45 37.618287 -122.368494 298 7ft 39kts

Navigation Log

Ident Type
Flight plan parsing failed, navigation log unavailable